createdAt,value
2019-01-12T00:00:40.161Z,30.91
2019-01-12T00:01:49.603Z,30.82
2019-01-12T00:02:58.550Z,30.82
2019-01-12T00:04:07.721Z,30.73
2019-01-12T00:05:17.151Z,30.82
2019-01-12T00:06:26.341Z,30.91
2019-01-12T00:07:35.526Z,30.91
2019-01-12T00:08:44.480Z,30.91
2019-01-12T00:09:53.662Z,30.73
2019-01-12T00:11:02.751Z,30.82
2019-01-12T00:12:12.492Z,30.91
2019-01-12T00:13:21.709Z,30.82
2019-01-12T00:14:31.164Z,30.91
2019-01-12T00:15:40.615Z,31.01
2019-01-12T00:16:50.075Z,30.82
2019-01-12T00:17:59.293Z,31.01
2019-01-12T00:19:08.503Z,30.91
2019-01-12T00:20:18.005Z,30.73
2019-01-12T00:21:27.497Z,30.91
2019-01-12T00:22:36.474Z,30.82
2019-01-12T00:23:45.927Z,30.73
2019-01-12T00:24:55.596Z,30.91
2019-01-12T00:26:05.031Z,30.82
2019-01-12T00:27:14.232Z,30.82
2019-01-12T00:28:23.456Z,30.73
2019-01-12T00:29:32.913Z,30.82
2019-01-12T00:30:42.371Z,30.82
2019-01-12T00:31:51.306Z,30.73
2019-01-12T00:33:00.520Z,30.82
2019-01-12T00:34:09.211Z,30.73
2019-01-12T00:35:18.659Z,30.82
2019-01-12T00:36:27.840Z,30.91
2019-01-12T00:37:37.257Z,30.73
2019-01-12T00:38:46.453Z,30.82
2019-01-12T00:39:55.631Z,30.73
2019-01-12T00:41:05.083Z,30.73
2019-01-12T00:42:16.408Z,30.82
2019-01-12T00:43:25.851Z,30.82
2019-01-12T00:44:35.292Z,30.91
2019-01-12T00:45:44.518Z,30.73
2019-01-12T00:46:53.706Z,30.91
2019-01-12T00:48:02.904Z,30.63
2019-01-12T00:49:12.601Z,30.82
2019-01-12T00:50:21.513Z,30.82
2019-01-12T00:51:30.432Z,30.82
2019-01-12T00:52:40.106Z,30.82
2019-01-12T00:53:49.087Z,30.73
2019-01-12T00:54:58.043Z,30.73
2019-01-12T00:56:07.515Z,30.82
2019-01-12T00:57:17.237Z,30.82
2019-01-12T00:58:26.695Z,30.73
2019-01-12T00:59:35.885Z,30.73
2019-01-12T01:00:44.807Z,30.73
2019-01-12T01:01:54.244Z,30.82
2019-01-12T01:03:03.174Z,30.63
2019-01-12T01:04:12.362Z,30.73
2019-01-12T01:05:22.056Z,30.73
2019-01-12T01:06:30.974Z,30.73
2019-01-12T01:07:40.160Z,30.82
2019-01-12T01:08:49.824Z,30.73
2019-01-12T01:09:59.501Z,30.73
2019-01-12T01:11:08.958Z,30.63
2019-01-12T01:12:18.657Z,30.73
2019-01-12T01:13:28.097Z,30.82
2019-01-12T01:14:37.288Z,30.82
2019-01-12T01:15:46.499Z,30.91
2019-01-12T01:16:55.190Z,30.63
2019-01-12T01:18:04.881Z,30.82
2019-01-12T01:19:14.587Z,30.74
2019-01-12T01:20:24.549Z,30.73
2019-01-12T01:21:33.982Z,30.73
2019-01-12T01:22:42.935Z,30.83
2019-01-12T01:23:52.384Z,30.63
2019-01-12T01:25:01.358Z,30.83
2019-01-12T01:26:10.554Z,30.83
2019-01-12T01:27:19.750Z,30.74
2019-01-12T01:28:28.943Z,30.83
2019-01-12T01:29:38.110Z,30.74
2019-01-12T01:30:47.315Z,30.91
2019-01-12T01:31:56.770Z,30.83
2019-01-12T01:33:06.196Z,30.82
2019-01-12T01:34:15.638Z,30.74
2019-01-12T01:35:24.835Z,30.82
2019-01-12T01:36:34.292Z,30.83
2019-01-12T01:37:43.245Z,30.83
2019-01-12T01:38:52.683Z,30.91
2019-01-12T01:40:01.619Z,30.74
2019-01-12T01:41:11.040Z,30.83
2019-01-12T01:42:20.464Z,30.93
2019-01-12T01:43:29.429Z,30.83
2019-01-12T01:44:38.886Z,30.64
2019-01-12T01:45:48.082Z,30.73
2019-01-12T01:46:57.510Z,30.82
2019-01-12T01:48:06.938Z,30.83
2019-01-12T01:49:16.366Z,30.73
2019-01-12T01:50:26.069Z,30.91
2019-01-12T01:51:35.251Z,30.82
2019-01-12T01:52:44.191Z,30.93
2019-01-12T01:53:53.770Z,30.91
2019-01-12T01:55:02.756Z,30.83
2019-01-12T01:56:11.978Z,30.83
2019-01-12T01:57:20.933Z,30.82
2019-01-12T01:58:30.376Z,30.74
2019-01-12T01:59:39.797Z,30.74
2019-01-12T02:00:49.235Z,30.93
2019-01-12T02:01:58.677Z,30.82
2019-01-12T02:03:08.398Z,30.93
2019-01-12T02:04:17.597Z,30.91
2019-01-12T02:05:27.293Z,30.93
2019-01-12T02:06:36.967Z,30.93
2019-01-12T02:07:46.431Z,30.83
2019-01-12T02:08:55.859Z,30.93
2019-01-12T02:10:04.816Z,30.82
2019-01-12T02:11:14.807Z,30.83
2019-01-12T02:12:24.328Z,30.83
2019-01-12T02:13:33.766Z,31.01
2019-01-12T02:14:43.207Z,30.93
2019-01-12T02:15:52.144Z,30.93
2019-01-12T02:17:01.300Z,30.74
2019-01-12T02:18:10.235Z,30.93
2019-01-12T02:19:19.405Z,31.01
2019-01-12T02:20:28.605Z,31.03
2019-01-12T02:21:38.024Z,30.91
2019-01-12T02:22:47.706Z,30.83
2019-01-12T02:23:56.901Z,30.83
2019-01-12T02:25:06.380Z,31.03
2019-01-12T02:26:15.805Z,31.03
2019-01-12T02:27:25.487Z,31.03
2019-01-12T02:28:34.691Z,30.93
2019-01-12T02:29:43.417Z,31.03
2019-01-12T02:30:52.363Z,30.93
2019-01-12T02:32:01.812Z,30.91
2019-01-12T02:33:11.496Z,30.83
2019-01-12T02:34:20.952Z,30.83
2019-01-12T02:35:30.172Z,30.83
2019-01-12T02:36:39.645Z,30.93
2019-01-12T02:37:48.844Z,31.01
2019-01-12T02:38:58.544Z,30.83
2019-01-12T02:40:07.987Z,30.93
2019-01-12T02:41:17.450Z,30.93
2019-01-12T02:42:27.408Z,30.93
2019-01-12T02:43:36.866Z,30.93
2019-01-12T02:44:46.091Z,30.93
2019-01-12T02:45:55.769Z,30.93
2019-01-12T02:47:05.195Z,30.83
2019-01-12T02:48:14.627Z,30.91
2019-01-12T02:49:24.123Z,30.93
2019-01-12T02:50:33.309Z,30.93
2019-01-12T02:51:43.255Z,30.93
2019-01-12T02:52:52.700Z,30.93
2019-01-12T02:54:02.415Z,31.03
2019-01-12T02:55:12.091Z,30.93
2019-01-12T02:56:21.760Z,30.93
2019-01-12T02:57:30.965Z,30.93
2019-01-12T02:58:40.660Z,30.93
2019-01-12T02:59:50.114Z,30.83
2019-01-12T03:00:59.057Z,30.93
2019-01-12T03:02:08.493Z,31.11
2019-01-12T03:03:17.708Z,31.01
2019-01-12T03:04:27.157Z,30.91
2019-01-12T03:05:36.594Z,31.22
2019-01-12T03:06:46.037Z,30.91
2019-01-12T03:07:55.751Z,31.11
2019-01-12T03:09:05.235Z,31.21
2019-01-12T03:10:14.712Z,31.21
2019-01-12T03:11:23.679Z,31.3
2019-01-12T03:12:32.605Z,31.3
2019-01-12T03:13:41.800Z,31.11
2019-01-12T03:14:51.506Z,31.4
2019-01-12T03:16:00.436Z,31.4
2019-01-12T03:17:10.377Z,31.4
2019-01-12T03:18:19.573Z,31.3
2019-01-12T03:19:28.754Z,31.4
2019-01-12T03:20:38.694Z,31.59
2019-01-12T03:21:48.397Z,31.59
2019-01-12T03:22:58.341Z,31.59
2019-01-12T03:24:07.780Z,31.59
2019-01-12T03:25:20.972Z,31.49
2019-01-12T03:26:30.156Z,31.49
2019-01-12T03:27:39.099Z,31.67
2019-01-12T03:28:48.556Z,31.59
2019-01-12T03:29:58.003Z,31.59
2019-01-12T03:31:07.429Z,31.48
2019-01-12T03:32:16.935Z,31.57
2019-01-12T03:33:26.648Z,31.67
2019-01-12T03:34:36.190Z,31.67
2019-01-12T03:35:45.631Z,31.57
2019-01-12T03:36:55.081Z,31.77
2019-01-12T03:38:04.311Z,31.77
2019-01-12T03:39:14.034Z,31.67
2019-01-12T03:40:23.717Z,31.87
2019-01-12T03:41:32.693Z,31.77
2019-01-12T03:42:42.628Z,31.77
2019-01-12T03:43:51.860Z,31.87
2019-01-12T03:45:01.305Z,32.06
2019-01-12T03:46:10.509Z,32.15
2019-01-12T03:47:20.197Z,31.96
2019-01-12T03:48:29.929Z,31.96
2019-01-12T03:49:38.881Z,31.96
2019-01-12T03:50:48.060Z,31.87
2019-01-12T03:51:56.991Z,31.96
2019-01-12T03:53:05.678Z,31.96
2019-01-12T03:54:15.115Z,31.96
2019-01-12T03:55:28.050Z,32.15
2019-01-12T03:56:36.990Z,32.15
2019-01-12T03:57:46.189Z,32.15
2019-01-12T03:58:55.386Z,32.06
2019-01-12T04:00:05.057Z,32.06
2019-01-12T04:01:13.989Z,32.15
2019-01-12T04:02:23.197Z,32.06
2019-01-12T04:03:32.387Z,32.15
2019-01-12T04:04:42.074Z,32.25
2019-01-12T04:05:51.273Z,32.25
2019-01-12T04:07:00.712Z,32.25
2019-01-12T04:08:09.658Z,32.25
2019-01-12T04:09:18.862Z,32.25
2019-01-12T04:10:28.285Z,32.25
2019-01-12T04:11:37.226Z,32.14
2019-01-12T04:12:46.655Z,32.44
2019-01-12T04:13:56.105Z,32.43
2019-01-12T04:15:05.544Z,32.33
2019-01-12T04:16:14.987Z,32.14
2019-01-12T04:17:24.418Z,32.34
2019-01-12T04:18:33.609Z,32.33
2019-01-12T04:19:43.522Z,32.62
2019-01-12T04:20:53.470Z,32.52
2019-01-12T04:22:02.400Z,32.43
2019-01-12T04:23:11.578Z,32.33
2019-01-12T04:24:21.012Z,32.43
2019-01-12T04:25:36.398Z,32.23
2019-01-12T04:26:45.835Z,32.54
2019-01-12T04:27:55.006Z,32.52
2019-01-12T04:29:04.245Z,32.33
2019-01-12T04:30:13.437Z,32.43
2019-01-12T04:31:22.893Z,32.33
2019-01-12T04:32:31.810Z,32.52
2019-01-12T04:33:41.243Z,32.52
2019-01-12T04:34:50.426Z,32.52
2019-01-12T04:36:00.129Z,32.52
2019-01-12T04:37:10.057Z,32.52
2019-01-12T04:38:19.765Z,32.71
2019-01-12T04:39:28.718Z,32.71
2019-01-12T04:40:38.385Z,32.62
2019-01-12T04:41:47.812Z,32.62
2019-01-12T04:42:57.743Z,32.52
2019-01-12T04:44:07.191Z,32.52
2019-01-12T04:45:16.639Z,32.52
2019-01-12T04:46:25.820Z,32.52
2019-01-12T04:47:35.284Z,32.52
2019-01-12T04:48:44.511Z,32.43
2019-01-12T04:49:53.947Z,32.43
2019-01-12T04:51:03.142Z,32.52
2019-01-12T04:52:12.595Z,32.71
2019-01-12T04:53:22.049Z,32.52
2019-01-12T04:54:31.753Z,32.81
2019-01-12T04:55:43.888Z,32.71
2019-01-12T04:56:53.580Z,32.9
2019-01-12T04:58:03.526Z,32.62
2019-01-12T04:59:12.958Z,32.52
2019-01-12T05:00:22.897Z,32.81
2019-01-12T05:01:32.360Z,32.52
2019-01-12T05:02:41.806Z,32.43
2019-01-12T05:03:51.250Z,32.81
2019-01-12T05:05:00.539Z,33.1
2019-01-12T05:06:10.332Z,32.9
2019-01-12T05:07:19.543Z,33.1
2019-01-12T05:08:29.332Z,32.9
2019-01-12T05:09:38.782Z,33
2019-01-12T05:10:48.479Z,32.71
2019-01-12T05:11:58.208Z,32.81
2019-01-12T05:13:08.139Z,32.62
2019-01-12T05:14:17.326Z,32.81
2019-01-12T05:15:26.503Z,32.81
2019-01-12T05:16:35.692Z,32.81
2019-01-12T05:17:45.151Z,32.52
2019-01-12T05:18:54.344Z,32.71
2019-01-12T05:20:04.029Z,32.62
2019-01-12T05:21:13.705Z,33
2019-01-12T05:22:23.441Z,33
2019-01-12T05:23:33.148Z,32.71
2019-01-12T05:24:42.577Z,32.62
2019-01-12T05:25:51.671Z,32.9
2019-01-12T05:27:01.103Z,33
2019-01-12T05:28:09.842Z,32.71
2019-01-12T05:29:18.782Z,32.9
2019-01-12T05:30:28.233Z,32.71
2019-01-12T05:31:37.685Z,32.9
2019-01-12T05:32:47.398Z,32.9
2019-01-12T05:33:56.848Z,32.81
2019-01-12T05:35:06.786Z,32.81
2019-01-12T05:36:15.965Z,32.81
2019-01-12T05:37:24.924Z,32.81
2019-01-12T05:38:34.605Z,32.81
2019-01-12T05:39:44.060Z,32.71
2019-01-12T05:40:53.261Z,32.9
2019-01-12T05:42:02.239Z,33
2019-01-12T05:43:11.933Z,33.1
2019-01-12T05:44:23.512Z,33
2019-01-12T05:45:32.722Z,33.1
2019-01-12T05:46:41.659Z,33.1
2019-01-12T05:47:51.396Z,33.2
2019-01-12T05:49:00.845Z,33
2019-01-12T05:50:10.343Z,32.89
2019-01-12T05:51:19.781Z,33.08
2019-01-12T05:52:29.211Z,32.98
2019-01-12T05:53:38.651Z,33.18
2019-01-12T05:54:47.835Z,33.2
2019-01-12T05:56:01.359Z,33.1
2019-01-12T05:57:10.574Z,33.1
2019-01-12T05:58:20.007Z,33.2
2019-01-12T05:59:29.430Z,33.1
2019-01-12T06:00:38.883Z,33.18
2019-01-12T06:01:47.828Z,33
2019-01-12T06:02:57.264Z,33.18
2019-01-12T06:04:06.209Z,32.98
2019-01-12T06:05:15.146Z,33.1
2019-01-12T06:06:24.564Z,33
2019-01-12T06:07:33.989Z,33.1
2019-01-12T06:08:43.175Z,33.08
2019-01-12T06:09:52.856Z,33.08
2019-01-12T06:11:02.058Z,32.98
2019-01-12T06:12:11.241Z,32.89
2019-01-12T06:13:20.162Z,33.08
2019-01-12T06:14:29.586Z,33.08
2019-01-12T06:15:39.289Z,32.98
2019-01-12T06:16:48.474Z,32.98
2019-01-12T06:17:57.415Z,32.98
2019-01-12T06:19:07.368Z,32.98
2019-01-12T06:20:16.811Z,33.08
2019-01-12T06:21:26.049Z,33.28
2019-01-12T06:22:35.498Z,32.98
2019-01-12T06:23:45.189Z,32.89
2019-01-12T06:24:54.620Z,32.89
2019-01-12T06:26:06.531Z,32.89
2019-01-12T06:27:16.209Z,32.89
2019-01-12T06:28:25.913Z,33.08
2019-01-12T06:29:35.329Z,33.18
2019-01-12T06:30:44.505Z,33.08
2019-01-12T06:31:53.445Z,33.18
2019-01-12T06:33:02.378Z,33.18
2019-01-12T06:34:11.822Z,32.79
2019-01-12T06:35:21.001Z,33.28
2019-01-12T06:36:29.947Z,33.28
2019-01-12T06:37:39.826Z,33.18
2019-01-12T06:38:49.519Z,33.28
2019-01-12T06:39:59.210Z,33.37
2019-01-12T06:41:08.661Z,33.28
2019-01-12T06:42:18.106Z,33.08
2019-01-12T06:43:27.793Z,33.28
2019-01-12T06:44:37.293Z,33.37
2019-01-12T06:45:46.838Z,33.37
2019-01-12T06:46:56.542Z,33.28
2019-01-12T06:48:05.964Z,33.37
2019-01-12T06:49:15.405Z,33.37
2019-01-12T06:50:24.867Z,33.28
2019-01-12T06:51:34.586Z,33.37
2019-01-12T06:52:43.775Z,33.18
2019-01-12T06:53:53.205Z,33.47
2019-01-12T06:55:02.385Z,33.18
2019-01-12T06:56:13.417Z,33.18
2019-01-12T06:57:22.611Z,33.18
2019-01-12T06:58:31.778Z,33.18
2019-01-12T06:59:40.734Z,33.28
2019-01-12T07:00:49.702Z,32.89
2019-01-12T07:01:59.150Z,32.89
2019-01-12T07:03:07.852Z,32.89
2019-01-12T07:04:17.530Z,32.89
2019-01-12T07:05:27.217Z,32.89
2019-01-12T07:06:36.923Z,33.08
2019-01-12T07:07:46.394Z,33.08
2019-01-12T07:08:55.855Z,33.18
2019-01-12T07:10:05.333Z,33.18
2019-01-12T07:11:14.518Z,33.37
2019-01-12T07:12:24.446Z,33.28
2019-01-12T07:13:33.888Z,33.18
2019-01-12T07:14:43.064Z,33.37
2019-01-12T07:15:51.737Z,33.28
2019-01-12T07:17:00.918Z,33.37
2019-01-12T07:18:11.434Z,33.37
2019-01-12T07:19:21.131Z,33.47
2019-01-12T07:20:30.561Z,33.47
2019-01-12T07:21:39.989Z,33.37
2019-01-12T07:22:48.706Z,33.37
2019-01-12T07:23:57.662Z,33.37
2019-01-12T07:25:07.099Z,33.28
2019-01-12T07:26:19.981Z,33.37
2019-01-12T07:27:29.688Z,33.37
2019-01-12T07:28:38.867Z,33.37
2019-01-12T07:29:48.317Z,33.47
2019-01-12T07:30:57.532Z,33.36
2019-01-12T07:32:06.988Z,33.37
2019-01-12T07:33:16.417Z,33.47
2019-01-12T07:34:25.850Z,33.28
2019-01-12T07:35:35.025Z,33.37
2019-01-12T07:36:43.962Z,33.45
2019-01-12T07:37:53.138Z,33.45
2019-01-12T07:39:02.620Z,33.36
2019-01-12T07:40:12.329Z,33.36
2019-01-12T07:41:21.261Z,33.45
2019-01-12T07:42:31.204Z,33.26
2019-01-12T07:43:40.377Z,33.37
2019-01-12T07:44:50.060Z,33.47
2019-01-12T07:45:59.494Z,33.36
2019-01-12T07:47:08.178Z,33.36
2019-01-12T07:48:17.615Z,33.37
2019-01-12T07:49:27.095Z,33.45
2019-01-12T07:50:36.878Z,33.45
2019-01-12T07:51:46.562Z,33.16
2019-01-12T07:52:56.008Z,33.18
2019-01-12T07:54:05.716Z,33.36
2019-01-12T07:55:15.409Z,33.28
2019-01-12T07:56:26.859Z,33.64
2019-01-12T07:57:36.046Z,33.45
2019-01-12T07:58:45.476Z,33.16
2019-01-12T07:59:54.742Z,33.54
2019-01-12T08:01:04.845Z,33.18
2019-01-12T08:02:13.823Z,33.16
2019-01-12T08:03:22.993Z,33.16
2019-01-12T08:04:32.660Z,33.16
2019-01-12T08:05:41.884Z,33.07
2019-01-12T08:06:51.581Z,33.07
2019-01-12T08:08:01.517Z,33.16
2019-01-12T08:09:10.957Z,33.07
2019-01-12T08:10:20.155Z,33.26
2019-01-12T08:11:29.727Z,33.16
2019-01-12T08:12:39.152Z,33.54
2019-01-12T08:13:48.342Z,33.64
2019-01-12T08:14:57.536Z,33.64
2019-01-12T08:16:06.228Z,33.64
2019-01-12T08:17:15.169Z,33.45
2019-01-12T08:18:23.877Z,33.54
2019-01-12T08:19:32.832Z,33.36
2019-01-12T08:20:42.019Z,33.36
2019-01-12T08:21:51.448Z,33.36
2019-01-12T08:23:00.379Z,33.45
2019-01-12T08:24:10.264Z,33.64
2019-01-12T08:25:19.703Z,33.54
2019-01-12T08:26:33.383Z,33.16
2019-01-12T08:27:43.304Z,33.26
2019-01-12T08:28:52.995Z,33.54
2019-01-12T08:30:01.927Z,33.26
2019-01-12T08:31:11.627Z,33.45
2019-01-12T08:32:22.134Z,33.54
2019-01-12T08:33:31.074Z,33.54
2019-01-12T08:34:40.277Z,33.16
2019-01-12T08:35:49.459Z,33.26
2019-01-12T08:36:58.657Z,33.54
2019-01-12T08:38:07.603Z,33.36
2019-01-12T08:39:17.312Z,33.45
2019-01-12T08:40:26.492Z,33.16
2019-01-12T08:41:35.943Z,33.64
2019-01-12T08:42:45.916Z,33.36
2019-01-12T08:43:55.346Z,33.36
2019-01-12T08:45:04.538Z,33.36
2019-01-12T08:46:13.712Z,33.45
2019-01-12T08:47:23.154Z,33.64
2019-01-12T08:48:32.590Z,33.74
2019-01-12T08:49:42.024Z,33.54
2019-01-12T08:50:50.968Z,33.54
2019-01-12T08:52:00.409Z,33.45
2019-01-12T08:53:09.588Z,33.45
2019-01-12T08:54:19.017Z,33.54
2019-01-12T08:55:28.439Z,33.45
2019-01-12T08:56:40.931Z,33.54
2019-01-12T08:57:49.878Z,33.54
2019-01-12T08:58:59.062Z,33.64
2019-01-12T09:00:08.251Z,33.64
2019-01-12T09:01:17.428Z,33.64
2019-01-12T09:02:26.344Z,33.54
2019-01-12T09:03:35.263Z,33.54
2019-01-12T09:04:46.116Z,33.45
2019-01-12T09:05:55.560Z,33.54
2019-01-12T09:07:04.521Z,33.54
2019-01-12T09:08:14.275Z,33.54
2019-01-12T09:09:23.962Z,33.36
2019-01-12T09:10:32.882Z,33.64
2019-01-12T09:11:42.120Z,33.36
2019-01-12T09:12:51.073Z,33.45
2019-01-12T09:14:00.261Z,33.64
2019-01-12T09:15:09.448Z,33.45
2019-01-12T09:16:18.378Z,33.64
2019-01-12T09:17:27.572Z,33.54
2019-01-12T09:18:37.016Z,33.54
2019-01-12T09:19:46.709Z,33.54
2019-01-12T09:20:55.644Z,33.64
2019-01-12T09:22:04.831Z,33.36
2019-01-12T09:23:15.308Z,33.54
2019-01-12T09:24:24.747Z,33.54
2019-01-12T09:25:34.212Z,33.45
2019-01-12T09:26:47.344Z,33.36
2019-01-12T09:27:56.272Z,33.45
2019-01-12T09:29:06.479Z,33.54
2019-01-12T09:30:16.182Z,33.36
2019-01-12T09:31:26.125Z,33.54
2019-01-12T09:32:35.574Z,33.64
2019-01-12T09:33:45.002Z,33.54
2019-01-12T09:34:53.911Z,33.64
2019-01-12T09:36:03.336Z,33.54
2019-01-12T09:37:12.521Z,33.54
2019-01-12T09:38:21.440Z,33.26
2019-01-12T09:39:30.615Z,33.54
2019-01-12T09:40:40.050Z,33.16
2019-01-12T09:41:49.480Z,33.07
2019-01-12T09:42:58.661Z,33.64
2019-01-12T09:44:08.349Z,33.07
2019-01-12T09:45:17.775Z,33.16
2019-01-12T09:46:27.236Z,33.16
2019-01-12T09:47:36.943Z,33.16
2019-01-12T09:48:46.369Z,33.16
2019-01-12T09:49:55.309Z,33.45
2019-01-12T09:51:04.786Z,33.64
2019-01-12T09:52:14.225Z,33.54
2019-01-12T09:53:23.692Z,33.16
2019-01-12T09:54:33.124Z,33.26
2019-01-12T09:55:43.118Z,33.16
2019-01-12T09:56:54.361Z,33.16
2019-01-12T09:58:03.830Z,33.16
2019-01-12T09:59:12.522Z,33.26
2019-01-12T10:00:22.205Z,33.07
2019-01-12T10:01:31.887Z,33.36
2019-01-12T10:02:40.823Z,33.36
2019-01-12T10:03:50.507Z,33.16
2019-01-12T10:04:59.678Z,33.16
2019-01-12T10:06:09.120Z,33.45
2019-01-12T10:07:18.852Z,33.45
2019-01-12T10:08:28.027Z,33.36
2019-01-12T10:09:36.952Z,33.36
2019-01-12T10:10:46.142Z,33.45
2019-01-12T10:11:55.083Z,33.26
2019-01-12T10:13:04.013Z,33.36
2019-01-12T10:14:13.484Z,33.45
2019-01-12T10:15:23.162Z,33.36
2019-01-12T10:16:33.084Z,33.36
2019-01-12T10:17:42.311Z,33.26
2019-01-12T10:18:51.494Z,33.36
2019-01-12T10:20:00.703Z,33.16
2019-01-12T10:21:09.630Z,33.36
2019-01-12T10:22:18.596Z,33.16
2019-01-12T10:23:33.360Z,33.36
2019-01-12T10:24:42.563Z,33.36
2019-01-12T10:25:52.003Z,33.07
2019-01-12T10:27:01.948Z,33.07
2019-01-12T10:28:11.669Z,32.87
2019-01-12T10:29:20.870Z,33.26
2019-01-12T10:30:30.304Z,33.26
2019-01-12T10:31:39.752Z,33.36
2019-01-12T10:32:48.910Z,33.16
2019-01-12T10:33:58.185Z,33.36
2019-01-12T10:35:07.130Z,33.26
2019-01-12T10:36:16.837Z,33.36
2019-01-12T10:37:25.770Z,33.26
2019-01-12T10:38:34.949Z,33.16
2019-01-12T10:39:44.139Z,33.16
2019-01-12T10:40:53.576Z,33.07
2019-01-12T10:42:02.795Z,33.07
2019-01-12T10:43:11.728Z,32.87
2019-01-12T10:44:20.654Z,32.97
2019-01-12T10:45:30.333Z,33.07
2019-01-12T10:46:40.042Z,33.07
2019-01-12T10:47:49.496Z,32.87
2019-01-12T10:48:58.685Z,32.87
2019-01-12T10:50:07.652Z,32.97
2019-01-12T10:51:17.656Z,32.97
2019-01-12T10:52:27.374Z,33.07
2019-01-12T10:53:36.562Z,33.07
2019-01-12T10:54:45.997Z,32.97
2019-01-12T10:55:55.440Z,32.97
2019-01-12T10:57:08.125Z,32.97
2019-01-12T10:58:17.575Z,32.97
2019-01-12T10:59:27.009Z,33.07
2019-01-12T11:00:36.205Z,32.87
2019-01-12T11:01:45.936Z,33.07
2019-01-12T11:02:55.884Z,33.07
2019-01-12T11:04:05.308Z,32.87
2019-01-12T11:05:14.732Z,32.97
2019-01-12T11:06:24.158Z,32.97
2019-01-12T11:07:33.331Z,32.97
2019-01-12T11:08:42.541Z,33.07
2019-01-12T11:09:52.249Z,32.97
2019-01-12T11:11:07.368Z,33.07
2019-01-12T11:12:16.535Z,32.97
2019-01-12T11:13:25.725Z,32.97
2019-01-12T11:14:34.916Z,32.87
2019-01-12T11:15:44.351Z,32.97
2019-01-12T11:16:53.543Z,32.87
2019-01-12T11:18:03.254Z,33.36
2019-01-12T11:19:12.943Z,32.87
2019-01-12T11:20:22.113Z,33.36
2019-01-12T11:21:31.541Z,33.36
2019-01-12T11:22:40.473Z,33.26
2019-01-12T11:23:49.702Z,33.26
2019-01-12T11:24:58.447Z,33.16
2019-01-12T11:26:07.428Z,33.36
2019-01-12T11:27:17.347Z,33.26
2019-01-12T11:28:26.793Z,33.36
2019-01-12T11:29:36.218Z,33.26
2019-01-12T11:30:45.419Z,32.97
2019-01-12T11:31:55.386Z,33.07
2019-01-12T11:33:04.641Z,32.97
2019-01-12T11:34:14.104Z,32.87
2019-01-12T11:35:23.548Z,32.97
2019-01-12T11:36:32.225Z,32.51
2019-01-12T11:37:41.917Z,32.31
2019-01-12T11:38:50.839Z,32.31
2019-01-12T11:40:00.312Z,32.12
2019-01-12T11:41:10.071Z,32.03
2019-01-12T11:42:19.320Z,32.03
2019-01-12T11:43:28.757Z,32.14
2019-01-12T11:44:38.224Z,31.65
2019-01-12T11:45:47.672Z,31.65
2019-01-12T11:46:57.864Z,31.65
2019-01-12T11:48:07.554Z,31.65
2019-01-12T11:49:16.489Z,31.46
2019-01-12T11:50:25.939Z,31.38
2019-01-12T11:51:35.121Z,31.38
2019-01-12T11:52:43.807Z,31.29
2019-01-12T11:53:53.233Z,31.19
2019-01-12T11:55:02.433Z,31.19
2019-01-12T11:56:12.169Z,31.19
2019-01-12T11:57:21.850Z,31.09
2019-01-12T11:58:31.873Z,30.9
2019-01-12T11:59:41.285Z,30.91
2019-01-12T12:00:50.512Z,30.91
2019-01-12T12:01:59.949Z,30.73
2019-01-12T12:03:09.150Z,30.73
2019-01-12T12:04:18.577Z,30.63
2019-01-12T12:05:27.747Z,30.73
2019-01-12T12:06:37.417Z,30.73
2019-01-12T12:07:46.346Z,30.45
2019-01-12T12:08:55.768Z,30.45
2019-01-12T12:10:05.185Z,30.55
2019-01-12T12:11:14.639Z,30.26
2019-01-12T12:12:24.361Z,30.35
2019-01-12T12:13:33.548Z,30.26
2019-01-12T12:14:42.727Z,30.45
2019-01-12T12:15:51.905Z,30.45
2019-01-12T12:17:01.124Z,30.26
2019-01-12T12:18:10.576Z,30.45
2019-01-12T12:19:20.043Z,30.45
2019-01-12T12:20:29.236Z,30.45
2019-01-12T12:21:38.436Z,30.07
2019-01-12T12:22:48.120Z,29.97
2019-01-12T12:23:56.827Z,29.97
2019-01-12T12:25:05.749Z,30.26
2019-01-12T12:26:15.194Z,29.98
2019-01-12T12:27:28.440Z,30.18
2019-01-12T12:28:37.870Z,30.08
2019-01-12T12:29:47.070Z,29.98
2019-01-12T12:30:56.517Z,30.18
2019-01-12T12:32:05.702Z,29.98
2019-01-12T12:33:14.680Z,30.18
2019-01-12T12:34:23.859Z,29.98
2019-01-12T12:35:39.773Z,30.46
2019-01-12T12:36:49.545Z,30.08
2019-01-12T12:37:58.806Z,30.08
2019-01-12T12:39:08.029Z,30.08
2019-01-12T12:40:17.216Z,30.37
2019-01-12T12:41:25.916Z,30.27
2019-01-12T12:42:35.345Z,30.18
2019-01-12T12:43:45.024Z,30.18
2019-01-12T12:44:54.699Z,30.08
2019-01-12T12:46:03.628Z,30.18
2019-01-12T12:47:13.764Z,30.27
2019-01-12T12:48:23.275Z,30.18
2019-01-12T12:49:32.701Z,30.18
2019-01-12T12:50:42.187Z,30.08
2019-01-12T12:51:51.866Z,30.38
2019-01-12T12:53:01.326Z,30.38
2019-01-12T12:54:10.745Z,30.29
2019-01-12T12:55:20.433Z,30.38
2019-01-12T12:56:30.144Z,30.38
2019-01-12T12:57:39.330Z,30.19
2019-01-12T12:58:48.517Z,30.29
2019-01-12T12:59:58.186Z,30.29
2019-01-12T13:01:07.626Z,30
2019-01-12T13:02:16.824Z,30.1
2019-01-12T13:03:25.995Z,30.1
2019-01-12T13:04:35.180Z,30.1
2019-01-12T13:05:44.116Z,30.1
2019-01-12T13:06:53.544Z,30.19
2019-01-12T13:08:03.220Z,30.29
2019-01-12T13:09:12.650Z,30.29
2019-01-12T13:10:21.856Z,30.1
2019-01-12T13:11:32.447Z,30.38
2019-01-12T13:12:42.151Z,30
2019-01-12T13:13:51.340Z,30.38
2019-01-12T13:15:00.779Z,30
2019-01-12T13:16:10.719Z,30
2019-01-12T13:17:19.903Z,30
2019-01-12T13:18:29.338Z,30
2019-01-12T13:19:39.053Z,29.9
2019-01-12T13:20:48.234Z,30.1
2019-01-12T13:21:57.443Z,30.1
2019-01-12T13:23:06.909Z,30.19
2019-01-12T13:24:16.837Z,30.1
2019-01-12T13:25:25.801Z,30.11
2019-01-12T13:26:36.644Z,30.19
2019-01-12T13:27:45.838Z,30.11
2019-01-12T13:28:55.518Z,30.11
2019-01-12T13:30:04.955Z,30.19
2019-01-12T13:31:14.627Z,30.48
2019-01-12T13:32:24.044Z,30.4
2019-01-12T13:33:33.726Z,30.21
2019-01-12T13:34:43.216Z,30.11
2019-01-12T13:35:52.648Z,30.11
2019-01-12T13:37:01.579Z,30.4
2019-01-12T13:38:12.403Z,30.3
2019-01-12T13:39:21.321Z,30.11
2019-01-12T13:40:36.835Z,30.01
2019-01-12T13:41:45.804Z,30.21
2019-01-12T13:42:56.046Z,30.3
2019-01-12T13:44:05.249Z,30.4
2019-01-12T13:45:14.999Z,30.21
2019-01-12T13:46:24.177Z,30.3
2019-01-12T13:47:34.129Z,30.3
2019-01-12T13:48:43.887Z,30.01
2019-01-12T13:49:53.193Z,30.01
2019-01-12T13:51:02.404Z,30.11
2019-01-12T13:52:12.127Z,30.4
2019-01-12T13:53:21.561Z,30.21
2019-01-12T13:54:31.036Z,30.11
2019-01-12T13:55:41.663Z,30.01
2019-01-12T13:56:51.098Z,30.01
2019-01-12T13:58:00.543Z,30.21
2019-01-12T13:59:09.733Z,30.21
2019-01-12T14:00:19.270Z,30.3
2019-01-12T14:01:28.703Z,30.01
2019-01-12T14:02:37.903Z,30.01
2019-01-12T14:03:47.068Z,30.11
2019-01-12T14:04:56.488Z,30.49
2019-01-12T14:06:06.176Z,30.49
2019-01-12T14:07:15.589Z,30.49
2019-01-12T14:08:24.771Z,30.4
2019-01-12T14:09:33.952Z,30.49
2019-01-12T14:10:43.379Z,30.3
2019-01-12T14:11:52.565Z,30.49
2019-01-12T14:13:02.017Z,30.3
2019-01-12T14:14:11.203Z,30.49
2019-01-12T14:15:20.896Z,30.49
2019-01-12T14:16:30.324Z,30.41
2019-01-12T14:17:39.770Z,30.41
2019-01-12T14:18:48.747Z,30.51
2019-01-12T14:19:57.929Z,30.51
2019-01-12T14:21:07.273Z,30.51
2019-01-12T14:22:15.959Z,30.41
2019-01-12T14:23:24.880Z,30.61
2019-01-12T14:24:34.065Z,30.4
2019-01-12T14:25:43.499Z,30.61
2019-01-12T14:26:52.427Z,30.8
2019-01-12T14:28:01.116Z,30.8
2019-01-12T14:29:09.785Z,30.8
2019-01-12T14:30:18.722Z,30.8
2019-01-12T14:31:27.893Z,30.8
2019-01-12T14:32:37.085Z,30.8
2019-01-12T14:33:46.614Z,30.8
2019-01-12T14:34:55.551Z,30.8
2019-01-12T14:36:04.978Z,30.8
2019-01-12T14:37:14.178Z,30.8
2019-01-12T14:38:23.353Z,30.8
2019-01-12T14:39:33.299Z,30.61
2019-01-12T14:40:43.016Z,30.8
2019-01-12T14:41:51.960Z,30.8
2019-01-12T14:43:01.391Z,30.9
2019-01-12T14:44:11.086Z,30.9
2019-01-12T14:45:20.783Z,30.8
2019-01-12T14:46:29.962Z,30.8
2019-01-12T14:47:39.389Z,30.61
2019-01-12T14:48:48.322Z,30.7
2019-01-12T14:49:57.751Z,30.7
2019-01-12T14:51:07.739Z,30.62
2019-01-12T14:52:16.925Z,30.99
2019-01-12T14:53:26.603Z,30.8
2019-01-12T14:54:36.288Z,30.7
2019-01-12T14:55:45.969Z,30.61
2019-01-12T14:56:55.149Z,30.8
2019-01-12T14:58:05.286Z,30.7
2019-01-12T14:59:15.034Z,30.99